Time;durP1;ratioP1;P1;durP2;ratioP2;P2;SDS_P1;SDS_P2;PMS_P1;PMS_P2;Temp;Humidity;BMP_temperature;BMP_pressure;BME280_temperature;BME280_humidity;BME280_pressure;Samples;Min_cycle;Max_cycle;Signal;HPM_P1;HPM_P2
2022/09/16 00:01:17;;;;;;;5.40;4.10;;;12.20;99.90;;;;;;5054705;28;20251;-71
2022/09/16 00:03:44;;;;;;;10.18;3.90;;;12.20;99.90;;;;;;5053989;28;20185;-71
2022/09/16 00:06:22;;;;;;;6.35;4.22;;;12.20;99.90;;;;;;5063918;28;20180;-71
2022/09/16 00:08:49;;;;;;;6.13;3.95;;;12.20;99.90;;;;;;5093897;28;20219;-73
2022/09/16 00:11:16;;;;;;;10.10;4.30;;;12.20;99.90;;;;;;5054010;28;20684;-71
2022/09/16 00:13:42;;;;;;;11.67;4.37;;;12.20;99.90;;;;;;5053922;28;20530;-71
2022/09/16 00:16:15;;;;;;;7.23;4.13;;;12.20;99.90;;;;;;5053860;28;20179;-71
2022/09/16 00:18:41;;;;;;;6.20;4.13;;;12.20;99.90;;;;;;5053601;28;20329;-71
2022/09/16 00:21:08;;;;;;;9.63;4.00;;;12.20;99.90;;;;;;5054833;28;20213;-72
2022/09/16 00:23:35;;;;;;;6.25;3.88;;;12.20;99.90;;;;;;5057989;28;20647;-72
2022/09/16 00:26:02;;;;;;;9.40;4.15;;;12.10;99.90;;;;;;5062611;28;20631;-71
2022/09/16 00:28:27;;;;;;;4.63;3.38;;;12.10;99.90;;;;;;5061519;28;20206;-72
2022/09/16 00:30:53;;;;;;;9.32;3.72;;;12.10;99.90;;;;;;5062962;28;20170;-72
2022/09/16 00:33:19;;;;;;;8.32;3.85;;;12.10;99.90;;;;;;5060534;28;20237;-72
2022/09/16 00:35:46;;;;;;;5.63;3.70;;;12.20;99.90;;;;;;5062827;28;20484;-71
2022/09/16 00:38:12;;;;;;;6.90;3.63;;;12.10;99.90;;;;;;5099489;28;20195;-71
2022/09/16 00:40:48;;;;;;;7.43;3.90;;;12.10;99.90;;;;;;5069857;28;20256;-71
2022/09/16 00:43:16;;;;;;;3.95;3.40;;;12.10;99.90;;;;;;5057187;28;20174;-71
2022/09/16 00:45:47;;;;;;;5.13;3.90;;;12.10;99.90;;;;;;5056065;28;20170;-71
2022/09/16 00:48:21;;;;;;;4.57;3.20;;;12.10;99.90;;;;;;5057171;28;20187;-71
2022/09/16 00:50:55;;;;;;;14.13;3.90;;;12.20;99.90;;;;;;5055578;28;20178;-71
2022/09/16 00:53:27;;;;;;;16.00;4.10;;;12.20;99.90;;;;;;5057037;28;20277;-72
2022/09/16 00:55:56;;;;;;;9.95;3.83;;;12.20;99.90;;;;;;5055715;28;20513;-71
2022/09/16 00:58:25;;;;;;;6.63;3.30;;;12.10;99.90;;;;;;5056811;28;20249;-71
2022/09/16 01:00:50;;;;;;;6.57;3.72;;;12.10;99.90;;;;;;5055525;28;20209;-71
2022/09/16 01:03:17;;;;;;;8.47;4.00;;;12.10;99.90;;;;;;5056852;28;20182;-72
2022/09/16 01:05:44;;;;;;;5.10;3.67;;;12.10;99.90;;;;;;5059397;28;20181;-71
2022/09/16 01:08:09;;;;;;;8.77;4.17;;;12.10;99.90;;;;;;5097295;28;20276;-72
2022/09/16 01:10:35;;;;;;;4.90;3.80;;;12.10;99.90;;;;;;5069332;28;20216;-71
2022/09/16 01:13:06;;;;;;;7.68;4.13;;;12.10;99.90;;;;;;5056098;28;20581;-72
2022/09/16 01:15:56;;;;;;;7.10;3.90;;;12.10;99.90;;;;;;5057113;28;20154;-71
2022/09/16 01:18:40;;;;;;;5.83;4.00;;;12.10;99.90;;;;;;5056366;28;20193;-72
2022/09/16 01:21:22;;;;;;;4.53;3.60;;;12.00;99.90;;;;;;5055080;28;20174;-71
2022/09/16 01:24:22;;;;;;;5.73;3.70;;;12.10;99.90;;;;;;5056465;28;20598;-71
2022/09/16 01:27:20;;;;;;;8.13;4.30;;;12.10;99.90;;;;;;5055042;28;20673;-71
2022/09/16 01:29:49;;;;;;;9.77;4.40;;;12.00;99.90;;;;;;5043585;28;20781;-71
2022/09/16 01:32:36;;;;;;;4.30;3.60;;;12.10;99.90;;;;;;5054316;28;20195;-71
2022/09/16 01:35:26;;;;;;;8.20;4.13;;;12.10;99.90;;;;;;5056193;28;20204;-71
2022/09/16 01:38:16;;;;;;;7.33;3.73;;;12.10;99.90;;;;;;5093200;28;20228;-71
2022/09/16 01:40:53;;;;;;;9.02;3.75;;;12.10;99.90;;;;;;5066862;28;20235;-71
2022/09/16 01:43:41;;;;;;;9.57;4.05;;;12.10;99.90;;;;;;5054496;28;20177;-71
2022/09/16 01:46:22;;;;;;;9.35;4.30;;;12.10;99.90;;;;;;5054640;28;20158;-71
2022/09/16 01:49:08;;;;;;;9.37;4.00;;;12.10;99.90;;;;;;5055767;28;20197;-71
2022/09/16 01:51:48;;;;;;;9.63;4.10;;;12.10;99.90;;;;;;5056034;28;20194;-71
2022/09/16 01:54:25;;;;;;;7.47;3.70;;;12.10;99.90;;;;;;5055834;28;20182;-71
2022/09/16 01:57:06;;;;;;;8.70;4.53;;;12.10;99.90;;;;;;5054276;28;20571;-71
2022/09/16 01:59:49;;;;;;;10.63;4.50;;;12.10;99.90;;;;;;5055595;28;20197;-71
2022/09/16 02:02:24;;;;;;;5.77;3.80;;;12.10;99.90;;;;;;5055630;28;20191;-71
2022/09/16 02:04:54;;;;;;;6.25;4.00;;;12.10;99.90;;;;;;5053952;28;20170;-71
2022/09/16 02:07:27;;;;;;;6.40;3.73;;;12.10;99.90;;;;;;5083520;28;20188;-71
2022/09/16 02:10:25;;;;;;;6.90;3.77;;;12.10;99.90;;;;;;5078552;28;20210;-71
2022/09/16 02:12:54;;;;;;;5.63;3.50;;;12.10;99.90;;;;;;5050935;28;20213;-71
2022/09/16 02:15:23;;;;;;;4.53;3.28;;;12.10;99.90;;;;;;5056111;28;20708;-71
2022/09/16 02:17:58;;;;;;;7.63;3.67;;;12.10;99.90;;;;;;5055033;28;20172;-71
2022/09/16 02:20:27;;;;;;;4.33;3.37;;;12.10;99.90;;;;;;5053750;28;20631;-71
2022/09/16 02:23:08;;;;;;;5.20;3.40;;;12.10;99.90;;;;;;5053923;28;20651;-71
2022/09/16 02:25:37;;;;;;;6.80;3.50;;;12.10;99.90;;;;;;5055163;28;20673;-71
2022/09/16 02:28:11;;;;;;;8.93;3.70;;;12.10;99.90;;;;;;5054662;28;20194;-71
2022/09/16 02:30:41;;;;;;;6.10;3.40;;;12.10;99.90;;;;;;5055023;28;20162;-71
2022/09/16 02:33:10;;;;;;;6.93;3.45;;;12.00;99.90;;;;;;5055037;28;20198;-71
2022/09/16 02:35:38;;;;;;;8.50;3.80;;;12.00;99.90;;;;;;5055539;28;20171;-71
2022/09/16 02:38:11;;;;;;;6.77;4.30;;;12.00;99.90;;;;;;5095033;28;20680;-71
2022/09/16 02:40:45;;;;;;;6.63;3.80;;;12.00;99.90;;;;;;5067114;28;20569;-71
2022/09/16 02:43:10;;;;;;;9.17;3.83;;;12.00;99.90;;;;;;5054528;28;20632;-71
2022/09/16 02:45:49;;;;;;;6.73;3.90;;;12.00;99.90;;;;;;5052600;28;20184;-71
2022/09/16 02:48:30;;;;;;;11.43;3.97;;;12.00;99.90;;;;;;5053319;28;20275;-71
2022/09/16 02:51:12;;;;;;;6.97;3.50;;;12.00;99.90;;;;;;5054535;28;20551;-71
2022/09/16 02:53:57;;;;;;;8.10;3.53;;;12.00;99.90;;;;;;5054852;28;20642;-71
2022/09/16 02:56:35;;;;;;;4.83;3.40;;;12.00;99.90;;;;;;5054307;28;20163;-71
2022/09/16 02:59:03;;;;;;;5.47;3.30;;;12.00;99.90;;;;;;5053131;28;20206;-71
2022/09/16 03:01:32;;;;;;;8.10;3.60;;;12.00;99.90;;;;;;5054921;28;20198;-71
2022/09/16 03:03:58;;;;;;;6.25;3.35;;;12.00;99.90;;;;;;5054387;28;20175;-71
2022/09/16 03:06:25;;;;;;;8.33;3.70;;;12.00;99.90;;;;;;5068265;28;20652;-71
2022/09/16 03:08:55;;;;;;;9.68;3.28;;;12.10;99.90;;;;;;5094483;28;20196;-71
2022/09/16 03:11:50;;;;;;;6.87;3.77;;;12.00;99.90;;;;;;5052968;28;20214;-71
2022/09/16 03:14:18;;;;;;;8.03;3.37;;;12.00;99.90;;;;;;5053112;28;20167;-71
2022/09/16 03:16:44;;;;;;;11.17;4.20;;;12.10;99.90;;;;;;5054256;28;20166;-71
2022/09/16 03:19:38;;;;;;;10.00;3.60;;;12.00;99.90;;;;;;5054197;28;20198;-71
2022/09/16 03:22:08;;;;;;;8.40;3.33;;;12.00;99.90;;;;;;5054586;28;20186;-71
2022/09/16 03:25:04;;;;;;;5.63;3.35;;;12.00;99.90;;;;;;5055536;28;20551;-71
2022/09/16 03:27:51;;;;;;;4.53;3.30;;;12.00;99.90;;;;;;5054269;28;20184;-72
2022/09/16 03:30:17;;;;;;;9.33;3.90;;;12.00;99.90;;;;;;5052888;28;20265;-71
2022/09/16 03:32:55;;;;;;;10.37;3.50;;;12.00;99.90;;;;;;5052884;28;20206;-71
2022/09/16 03:35:35;;;;;;;6.40;3.85;;;12.00;99.90;;;;;;5052665;28;20174;-71
2022/09/16 03:38:03;;;;;;;7.87;3.10;;;12.00;99.90;;;;;;5052226;28;20198;-71
2022/09/16 03:40:31;;;;;;;9.60;3.47;;;12.00;99.90;;;;;;5053692;28;20276;-71
2022/09/16 03:42:57;;;;;;;5.38;3.47;;;12.00;99.90;;;;;;5052198;28;20257;-71
2022/09/16 03:45:23;;;;;;;9.83;3.47;;;12.00;99.90;;;;;;5053694;28;20174;-71
2022/09/16 03:47:51;;;;;;;8.47;3.50;;;11.90;99.90;;;;;;5053855;28;20179;-71
2022/09/16 03:50:19;;;;;;;6.37;3.80;;;11.90;99.90;;;;;;5052802;28;20521;-71
2022/09/16 03:52:45;;;;;;;7.27;3.47;;;11.90;99.90;;;;;;5053795;28;20205;-71
2022/09/16 03:55:11;;;;;;;8.10;3.77;;;11.90;99.90;;;;;;5054622;28;20159;-71
2022/09/16 03:57:37;;;;;;;6.90;3.53;;;11.90;99.90;;;;;;5060050;28;20228;-71
2022/09/16 04:00:05;;;;;;;4.83;3.60;;;11.90;99.90;;;;;;5060300;28;20639;-71
2022/09/16 04:02:31;;;;;;;6.30;3.40;;;11.90;99.90;;;;;;5060072;28;20178;-71
2022/09/16 04:04:57;;;;;;;8.07;3.57;;;11.90;99.90;;;;;;5060209;28;20261;-71
2022/09/16 04:07:23;;;;;;;7.63;3.80;;;12.00;99.90;;;;;;5090528;28;20184;-71
2022/09/16 04:09:48;;;;;;;7.93;3.60;;;12.00;99.90;;;;;;5085776;28;20197;-71
2022/09/16 04:12:14;;;;;;;5.40;3.50;;;11.90;99.90;;;;;;5059724;28;20198;-71
2022/09/16 04:14:40;;;;;;;6.07;3.45;;;11.90;99.90;;;;;;5058869;28;20178;-71
2022/09/16 04:17:06;;;;;;;7.30;3.80;;;11.90;99.90;;;;;;5060823;28;20292;-71
2022/09/16 04:19:32;;;;;;;9.93;4.17;;;11.90;99.90;;;;;;5059649;28;20217;-71
2022/09/16 04:21:57;;;;;;;8.43;3.87;;;11.80;99.90;;;;;;5058819;28;20182;-71
2022/09/16 04:24:23;;;;;;;5.73;3.60;;;11.80;99.90;;;;;;5060159;28;20174;-71
2022/09/16 04:26:49;;;;;;;6.83;3.50;;;11.90;99.90;;;;;;5060392;28;20233;-71
2022/09/16 04:29:16;;;;;;;10.33;4.57;;;11.90;99.90;;;;;;5059882;28;20216;-71
2022/09/16 04:31:42;;;;;;;9.13;4.03;;;11.80;99.90;;;;;;5058753;28;20209;-71
2022/09/16 04:34:10;;;;;;;7.10;3.60;;;11.80;99.90;;;;;;5060152;28;20197;-71
2022/09/16 04:36:38;;;;;;;8.83;4.13;;;11.80;99.90;;;;;;5077738;28;20176;-71
2022/09/16 04:39:04;;;;;;;7.97;4.07;;;11.80;99.90;;;;;;5097080;28;20242;-71
2022/09/16 04:41:31;;;;;;;11.43;3.83;;;11.80;99.90;;;;;;5059625;28;20218;-71
2022/09/16 04:43:58;;;;;;;8.90;4.17;;;11.80;99.90;;;;;;5058298;28;20178;-71
2022/09/16 04:46:26;;;;;;;5.00;3.67;;;11.90;99.90;;;;;;5058482;28;20174;-71
2022/09/16 04:48:53;;;;;;;4.73;3.63;;;11.80;99.90;;;;;;5059506;28;20244;-70
2022/09/16 04:51:21;;;;;;;6.43;3.80;;;11.80;99.90;;;;;;5059582;28;20202;-71
2022/09/16 04:53:47;;;;;;;9.90;3.93;;;11.80;99.90;;;;;;5059731;28;20163;-71
2022/09/16 04:56:25;;;;;;;8.90;4.00;;;11.80;99.90;;;;;;5060222;28;20170;-71
2022/09/16 04:58:59;;;;;;;6.63;4.20;;;11.70;99.90;;;;;;5059487;28;20201;-71
2022/09/16 05:01:31;;;;;;;10.47;4.20;;;11.60;99.90;;;;;;5058580;28;20182;-71
2022/09/16 05:03:59;;;;;;;9.93;5.17;;;11.50;99.90;;;;;;5058390;28;20178;-71
2022/09/16 05:06:31;;;;;;;9.53;4.67;;;11.50;99.90;;;;;;5072824;28;20272;-71
2022/09/16 05:08:59;;;;;;;12.60;5.10;;;11.50;99.90;;;;;;5096242;28;20188;-71
2022/09/16 05:11:32;;;;;;;10.90;5.43;;;11.50;99.90;;;;;;5056785;28;20221;-71
2022/09/16 05:13:59;;;;;;;9.60;5.17;;;11.60;99.90;;;;;;5056292;28;20191;-71
2022/09/16 05:16:25;;;;;;;11.50;6.33;;;11.50;99.90;;;;;;5056528;28;20155;-71
2022/09/16 05:18:54;;;;;;;10.63;5.90;;;11.50;99.90;;;;;;5054780;28;20678;-71
2022/09/16 05:21:22;;;;;;;10.67;6.13;;;11.50;99.90;;;;;;5056513;28;20519;-71
2022/09/16 05:23:48;;;;;;;13.40;5.77;;;11.40;99.90;;;;;;5055256;28;20282;-71
2022/09/16 05:26:19;;;;;;;9.80;5.60;;;11.40;99.90;;;;;;5056478;28;20167;-71
2022/09/16 05:28:45;;;;;;;11.20;5.50;;;11.50;99.90;;;;;;5054973;28;20701;-71
2022/09/16 05:31:22;;;;;;;9.37;5.37;;;11.50;99.90;;;;;;5056267;28;20175;-70
2022/09/16 05:33:57;;;;;;;9.60;5.03;;;11.50;99.90;;;;;;5056404;28;20159;-70
2022/09/16 05:36:25;;;;;;;9.23;5.00;;;11.60;99.90;;;;;;5069663;28;20179;-70
2022/09/16 05:38:51;;;;;;;9.97;5.30;;;11.60;99.90;;;;;;5096462;28;20247;-70
2022/09/16 05:41:17;;;;;;;9.00;5.13;;;11.60;99.90;;;;;;5056989;28;20202;-70
2022/09/16 05:43:43;;;;;;;11.20;5.10;;;11.60;99.90;;;;;;5055974;28;20238;-70
2022/09/16 05:46:15;;;;;;;12.48;5.10;;;11.60;99.90;;;;;;5056366;28;20174;-69
2022/09/16 05:48:40;;;;;;;14.95;4.72;;;11.70;99.90;;;;;;5054668;28;20288;-71
2022/09/16 05:51:09;;;;;;;9.70;5.10;;;11.60;99.90;;;;;;5054531;28;20214;-69
2022/09/16 05:53:35;;;;;;;8.77;4.80;;;11.60;99.90;;;;;;5055632;28;20180;-67
2022/09/16 05:56:04;;;;;;;11.30;4.40;;;11.60;99.90;;;;;;5054407;28;20183;-67
2022/09/16 05:58:31;;;;;;;12.10;4.30;;;11.60;99.90;;;;;;5055454;28;20217;-67
2022/09/16 06:01:17;;;;;;;12.30;4.13;;;11.70;99.90;;;;;;5054298;28;20179;-67
2022/09/16 06:03:45;;;;;;;14.67;4.60;;;11.60;99.90;;;;;;5055812;28;20159;-67
2022/09/16 06:06:24;;;;;;;10.53;4.97;;;11.60;99.90;;;;;;5065505;28;20676;-67
2022/09/16 06:08:53;;;;;;;9.38;4.80;;;11.70;99.90;;;;;;5095770;28;20185;-67
2022/09/16 06:11:19;;;;;;;8.77;3.90;;;11.70;99.90;;;;;;5054837;28;20215;-67
2022/09/16 06:13:44;;;;;;;10.80;4.80;;;11.70;99.90;;;;;;5054077;28;20175;-67
2022/09/16 06:16:13;;;;;;;10.90;4.33;;;11.70;99.90;;;;;;5055458;28;20202;-67
2022/09/16 06:18:39;;;;;;;9.17;4.87;;;11.70;99.90;;;;;;5054090;28;20740;-67
2022/09/16 06:21:10;;;;;;;8.70;4.93;;;11.60;99.90;;;;;;5055028;28;20170;-67
2022/09/16 06:23:37;;;;;;;8.57;4.73;;;11.60;99.90;;;;;;5055988;28;20182;-67
2022/09/16 06:26:14;;;;;;;8.93;4.20;;;11.70;99.90;;;;;;5056202;28;20194;-67
2022/09/16 06:28:40;;;;;;;7.73;4.60;;;11.70;99.90;;;;;;5055560;28;20194;-67
2022/09/16 06:31:07;;;;;;;11.87;5.37;;;11.70;99.90;;;;;;5056130;28;20175;-67
2022/09/16 06:33:34;;;;;;;8.90;4.77;;;11.80;99.90;;;;;;5055112;28;20178;-67
2022/09/16 06:36:20;;;;;;;7.70;4.57;;;11.90;99.90;;;;;;5062757;28;20204;-68
2022/09/16 06:38:47;;;;;;;8.17;4.77;;;11.90;99.90;;;;;;5095982;28;20189;-67
2022/09/16 06:41:14;;;;;;;9.45;4.50;;;12.00;99.90;;;;;;5057495;28;20220;-67
2022/09/16 06:43:41;;;;;;;10.02;4.45;;;12.00;99.90;;;;;;5054838;28;20174;-67
2022/09/16 06:46:12;;;;;;;11.03;4.33;;;12.00;99.90;;;;;;5053629;28;20178;-67
2022/09/16 06:48:39;;;;;;;6.63;4.33;;;12.00;99.90;;;;;;5053258;28;20190;-67
2022/09/16 06:51:15;;;;;;;9.50;4.67;;;12.10;99.90;;;;;;5053104;28;20175;-67
2022/09/16 06:53:41;;;;;;;7.77;4.50;;;12.10;99.90;;;;;;5054552;28;20150;-67
2022/09/16 06:56:11;;;;;;;9.27;4.87;;;12.20;99.90;;;;;;5053610;28;20174;-67
2022/09/16 06:58:38;;;;;;;10.75;4.70;;;12.30;99.90;;;;;;5052667;28;20232;-67
2022/09/16 07:01:12;;;;;;;8.40;4.40;;;12.40;99.90;;;;;;5052963;28;20213;-67
2022/09/16 07:03:41;;;;;;;8.80;4.55;;;12.50;99.90;;;;;;5054409;28;20171;-67
2022/09/16 07:06:08;;;;;;;10.30;4.60;;;12.50;99.90;;;;;;5063633;28;20256;-67
2022/09/16 07:08:35;;;;;;;5.03;4.07;;;12.50;99.90;;;;;;5094664;28;20185;-67
2022/09/16 07:11:03;;;;;;;16.08;4.50;;;12.40;99.90;;;;;;5059567;28;20178;-67
2022/09/16 07:13:29;;;;;;;7.25;4.50;;;12.50;99.90;;;;;;5054210;28;20166;-66
2022/09/16 07:16:00;;;;;;;10.40;4.30;;;12.50;99.90;;;;;;5053977;28;20518;-67
2022/09/16 07:18:27;;;;;;;9.30;4.30;;;12.50;99.90;;;;;;5052581;28;20194;-67
2022/09/16 07:20:59;;;;;;;6.40;4.43;;;12.60;99.90;;;;;;5052574;28;20179;-67
2022/09/16 07:23:24;;;;;;;13.90;4.43;;;12.60;99.90;;;;;;5054052;28;20159;-67
2022/09/16 07:26:06;;;;;;;7.35;4.20;;;12.70;99.90;;;;;;5053780;28;20257;-67
2022/09/16 07:28:32;;;;;;;7.43;4.30;;;12.80;99.90;;;;;;5052106;28;20678;-67
2022/09/16 07:31:05;;;;;;;8.73;4.25;;;12.80;99.90;;;;;;5053333;28;20174;-67
2022/09/16 07:33:34;;;;;;;9.82;4.95;;;12.80;99.90;;;;;;5053840;28;20175;-67
2022/09/16 07:36:00;;;;;;;8.75;4.50;;;12.80;99.90;;;;;;5059406;28;20602;-67
2022/09/16 07:38:28;;;;;;;9.43;4.70;;;12.70;99.90;;;;;;5092580;28;20197;-67
2022/09/16 07:40:54;;;;;;;8.00;4.40;;;12.60;99.90;;;;;;5061144;28;20247;-67
2022/09/16 07:43:20;;;;;;;12.05;5.47;;;12.60;99.90;;;;;;5053284;28;20628;-67
2022/09/16 07:45:46;;;;;;;5.38;4.60;;;12.60;99.90;;;;;;5053576;28;20178;-67
2022/09/16 07:48:11;;;;;;;11.75;5.80;;;12.60;99.90;;;;;;5053458;28;20198;-67
2022/09/16 07:50:37;;;;;;;11.63;6.53;;;12.60;99.90;;;;;;5053684;28;20246;-67
2022/09/16 07:53:03;;;;;;;10.63;6.60;;;12.70;99.90;;;;;;5053903;28;20194;-67
2022/09/16 07:55:29;;;;;;;12.68;7.47;;;12.60;99.90;;;;;;5053526;28;20621;-66
2022/09/16 07:57:55;;;;;;;11.57;6.97;;;12.50;99.90;;;;;;5053013;28;20204;-66
2022/09/16 08:00:21;;;;;;;8.65;6.10;;;12.40;99.90;;;;;;5053774;28;20170;-67
2022/09/16 08:02:46;;;;;;;10.20;6.43;;;12.10;99.90;;;;;;5052023;28;20186;-67
2022/09/16 08:05:12;;;;;;;12.30;6.90;;;11.90;99.90;;;;;;5053427;28;20181;-67
2022/09/16 08:07:38;;;;;;;12.33;7.33;;;11.90;99.90;;;;;;5087553;28;20189;-67
2022/09/16 08:10:04;;;;;;;10.57;8.03;;;11.80;99.90;;;;;;5074576;28;20193;-67
2022/09/16 08:12:32;;;;;;;11.97;7.57;;;11.80;99.90;;;;;;5052799;28;20567;-67
2022/09/16 08:14:59;;;;;;;16.13;8.80;;;11.80;99.90;;;;;;5051873;28;20181;-67
2022/09/16 08:17:25;;;;;;;13.67;8.63;;;12.00;99.90;;;;;;5051916;28;20174;-67
2022/09/16 08:19:51;;;;;;;14.90;8.00;;;12.10;99.90;;;;;;5053547;28;20240;-67
2022/09/16 08:22:17;;;;;;;14.32;8.27;;;12.20;99.90;;;;;;5051979;28;20174;-69
2022/09/16 08:24:43;;;;;;;13.77;8.40;;;12.30;99.90;;;;;;5053125;28;20215;-70
2022/09/16 08:27:09;;;;;;;18.95;8.77;;;12.30;99.90;;;;;;5053093;28;20182;-70
2022/09/16 08:29:34;;;;;;;14.40;8.95;;;12.40;99.90;;;;;;5052811;28;20265;-70
2022/09/16 08:32:00;;;;;;;14.68;9.20;;;12.50;99.90;;;;;;5053090;28;20213;-69
2022/09/16 08:34:28;;;;;;;11.00;7.55;;;12.50;99.90;;;;;;5054014;28;20171;-69
2022/09/16 08:36:57;;;;;;;11.60;8.35;;;12.50;99.90;;;;;;5074430;28;20676;-69
2022/09/16 08:39:24;;;;;;;10.73;8.65;;;12.60;99.90;;;;;;5089141;28;20204;-68
2022/09/16 08:41:50;;;;;;;11.70;7.88;;;12.70;99.90;;;;;;5074379;28;20193;-67
2022/09/16 08:44:56;;;;;;;13.35;8.48;;;12.80;99.90;;;;;;5074756;28;20181;-67
2022/09/16 08:47:29;;;;;;;10.45;5.70;;;12.90;99.90;;;;;;5075869;28;20170;-68
2022/09/16 08:49:57;;;;;;;14.07;5.72;;;12.80;99.90;;;;;;5077142;28;20264;-68
2022/09/16 08:52:33;;;;;;;7.68;5.38;;;12.90;99.90;;;;;;5077521;28;20200;-71
2022/09/16 08:55:07;;;;;;;10.27;5.80;;;13.00;99.90;;;;;;5075545;28;20173;-71
2022/09/16 08:57:50;;;;;;;9.82;5.97;;;13.10;99.90;;;;;;5077661;28;20153;-71
2022/09/16 09:00:18;;;;;;;8.40;4.80;;;13.20;99.90;;;;;;5075817;28;20170;-69
2022/09/16 09:02:56;;;;;;;5.60;4.05;;;13.30;99.90;;;;;;5075609;28;20186;-69
2022/09/16 09:05:34;;;;;;;7.18;4.65;;;13.40;99.90;;;;;;5076881;28;20185;-71
2022/09/16 09:08:26;;;;;;;7.40;5.05;;;13.30;99.90;;;;;;5056635;28;20205;-71
2022/09/16 09:11:09;;;;;;;6.28;4.30;;;13.30;99.90;;;;;;5074119;28;20193;-71
2022/09/16 09:13:53;;;;;;;5.30;4.13;;;13.30;99.90;;;;;;5077050;28;20162;-71
2022/09/16 09:16:52;;;;;;;7.85;3.97;;;13.20;99.90;;;;;;5075412;28;20236;-71
2022/09/16 09:20:00;;;;;;;5.05;4.20;;;13.20;99.90;;;;;;5076613;28;20189;-71
2022/09/16 09:22:44;;;;;;;4.80;3.60;;;13.10;99.90;;;;;;5045722;28;20616;-71
2022/09/16 09:25:21;;;;;;;4.78;4.10;;;13.50;99.90;;;;;;5076488;28;20566;-71
2022/09/16 09:27:50;;;;;;;8.07;4.47;;;13.70;99.90;;;;;;5068302;28;20182;-72
2022/09/16 09:30:23;;;;;;;7.45;3.83;;;14.00;99.90;;;;;;5056446;28;20171;-71
2022/09/16 09:32:54;;;;;;;5.68;3.25;;;14.20;99.90;;;;;;5056145;28;20202;-69
2022/09/16 09:35:35;;;;;;;4.78;3.30;;;14.40;99.90;;;;;;5055850;28;20209;-72
2022/09/16 09:38:24;;;;;;;3.75;2.80;;;14.40;99.90;;;;;;5054786;28;20190;-69
2022/09/16 09:41:11;;;;;;;4.38;3.10;;;14.20;99.90;;;;;;5054697;28;20206;-70
2022/09/16 09:44:00;;;;;;;4.90;3.10;;;14.10;99.90;;;;;;5054745;28;20193;-70
2022/09/16 09:46:40;;;;;;;8.70;3.58;;;14.20;99.90;;;;;;5054780;28;20596;-70
2022/09/16 09:49:27;;;;;;;5.28;3.58;;;14.20;99.90;;;;;;5056703;28;20192;-71
2022/09/16 09:52:25;;;;;;;7.47;2.92;;;14.20;99.90;;;;;;5055072;28;20206;-70
2022/09/16 09:54:52;;;;;;;4.57;3.10;;;14.40;99.90;;;;;;5056149;28;20173;-71
2022/09/16 09:57:20;;;;;;;7.60;3.00;;;14.60;99.90;;;;;;5054972;28;20186;-71
2022/09/16 10:00:10;;;;;;;7.10;3.08;;;14.50;99.90;;;;;;5054880;28;20198;-71
2022/09/16 10:02:41;;;;;;;7.32;3.22;;;14.50;99.90;;;;;;5056048;28;20174;-72
2022/09/16 10:05:24;;;;;;;4.45;3.00;;;14.10;99.90;;;;;;5055834;28;20616;-72
2022/09/16 10:07:53;;;;;;;4.30;2.97;;;13.90;99.90;;;;;;5092144;28;20193;-73
2022/09/16 10:10:22;;;;;;;6.32;2.97;;;13.70;99.90;;;;;;5073079;28;20183;-72
2022/09/16 10:12:48;;;;;;;4.18;3.10;;;13.70;99.90;;;;;;5055767;28;20214;-72
2022/09/16 10:15:29;;;;;;;7.28;2.95;;;13.90;99.90;;;;;;5054283;28;20174;-72
2022/09/16 10:17:58;;;;;;;5.75;3.58;;;14.00;99.90;;;;;;5054126;28;20194;-72
2022/09/16 10:20:30;;;;;;;8.95;4.18;;;14.30;99.90;;;;;;5055112;28;20304;-72
2022/09/16 10:23:12;;;;;;;10.73;3.63;;;14.40;99.90;;;;;;5054061;28;20178;-72
2022/09/16 10:25:38;;;;;;;5.53;3.42;;;14.50;99.90;;;;;;5054203;28;20174;-73
2022/09/16 10:28:20;;;;;;;6.93;3.38;;;14.80;99.90;;;;;;5055189;28;20210;-73
2022/09/16 10:30:57;;;;;;;6.28;3.13;;;14.90;99.90;;;;;;5055526;28;20682;-72
2022/09/16 10:33:40;;;;;;;6.88;2.85;;;15.10;99.90;;;;;;5055235;28;20194;-72
2022/09/16 10:36:09;;;;;;;6.95;3.17;;;15.10;99.90;;;;;;5063780;28;20546;-72
2022/09/16 10:38:43;;;;;;;5.00;3.00;;;15.10;99.90;;;;;;5095107;28;20193;-72
2022/09/16 10:41:19;;;;;;;7.38;3.10;;;15.20;99.90;;;;;;5058079;28;20273;-72
2022/09/16 10:44:31;;;;;;;4.50;2.75;;;15.30;99.90;;;;;;5053476;28;20173;-73
2022/09/16 10:47:01;;;;;;;5.10;3.13;;;15.40;99.90;;;;;;5051398;28;20220;-72
2022/09/16 10:49:47;;;;;;;9.65;3.20;;;15.30;99.90;;;;;;5054640;28;20186;-72
2022/09/16 10:52:20;;;;;;;7.35;2.92;;;15.50;99.90;;;;;;5054765;28;20190;-72
2022/09/16 10:54:46;;;;;;;8.65;2.90;;;15.90;99.90;;;;;;5053480;28;20180;-72
2022/09/16 10:57:22;;;;;;;9.48;2.65;;;16.00;99.90;;;;;;5053405;28;20189;-72
2022/09/16 11:00:12;;;;;;;4.40;2.47;;;15.70;99.90;;;;;;5054483;28;20201;-73
2022/09/16 11:02:45;;;;;;;7.05;2.90;;;15.60;99.90;;;;;;5054802;28;20162;-72
2022/09/16 11:05:16;;;;;;;4.13;2.85;;;15.50;99.90;;;;;;5053537;28;20167;-71
2022/09/16 11:07:58;;;;;;;3.92;2.83;;;15.10;99.90;;;;;;5088775;28;20192;-72
2022/09/16 11:10:33;;;;;;;4.10;3.00;;;14.70;99.90;;;;;;5070435;28;20186;-71
2022/09/16 11:13:40;;;;;;;5.57;2.63;;;14.00;99.90;;;;;;5054038;28;20198;-71
2022/09/16 11:16:12;;;;;;;8.15;3.88;;;13.50;99.90;;;;;;5053336;28;20194;-71
2022/09/16 11:18:56;;;;;;;7.90;2.75;;;13.00;99.90;;;;;;5054340;28;20202;-71
2022/09/16 11:21:37;;;;;;;4.95;2.67;;;12.70;99.90;;;;;;5054082;28;20183;-72
2022/09/16 11:24:27;;;;;;;4.85;2.75;;;12.50;99.90;;;;;;5052804;28;20181;-70
2022/09/16 11:27:02;;;;;;;7.63;2.40;;;12.30;99.90;;;;;;5054360;28;20635;-72
2022/09/16 11:29:50;;;;;;;3.90;3.03;;;12.20;99.90;;;;;;5052400;28;20201;-71
2022/09/16 11:32:38;;;;;;;6.35;2.70;;;12.10;99.90;;;;;;5054018;28;20194;-72
2022/09/16 11:35:39;;;;;;;3.50;2.78;;;12.00;99.90;;;;;;5052681;28;20205;-72
2022/09/16 11:38:16;;;;;;;3.40;2.47;;;12.10;99.90;;;;;;5053058;28;20202;-71
2022/09/16 11:41:07;;;;;;;3.47;2.60;;;12.40;99.90;;;;;;5053802;28;20667;-72
2022/09/16 11:43:32;;;;;;;3.28;2.50;;;12.80;99.90;;;;;;5053896;28;20534;-72
2022/09/16 11:46:22;;;;;;;3.35;2.70;;;12.90;99.90;;;;;;5053954;28;20182;-72
2022/09/16 11:48:56;;;;;;;5.10;2.70;;;13.10;99.90;;;;;;5054339;28;20191;-72
2022/09/16 11:51:54;;;;;;;5.30;2.40;;;13.10;99.90;;;;;;5052523;28;20573;-72
2022/09/16 11:55:01;;;;;;;3.50;2.55;;;13.00;99.90;;;;;;5052613;28;20163;-72
2022/09/16 11:57:33;;;;;;;3.42;2.80;;;13.00;99.90;;;;;;5047653;28;20186;-72
2022/09/16 12:00:19;;;;;;;4.72;2.90;;;13.30;99.90;;;;;;5053615;28;20159;-72
2022/09/16 12:02:58;;;;;;;5.53;2.60;;;13.70;99.90;;;;;;5052966;28;20178;-72
2022/09/16 12:05:24;;;;;;;4.63;2.55;;;14.20;99.90;;;;;;5054391;28;20179;-72
2022/09/16 12:08:01;;;;;;;5.18;3.17;;;14.80;99.90;;;;;;5091928;28;20177;-72
2022/09/16 12:10:38;;;;;;;3.08;2.80;;;15.10;99.90;;;;;;5069167;28;20178;-72
2022/09/16 12:13:09;;;;;;;5.30;2.65;;;15.00;99.90;;;;;;5053915;28;20198;-71
2022/09/16 12:15:56;;;;;;;5.72;2.60;;;14.90;99.90;;;;;;5054696;28;20213;-72
2022/09/16 12:18:28;;;;;;;2.40;2.20;;;14.60;99.90;;;;;;5056864;28;20205;-72
2022/09/16 12:21:09;;;;;;;4.40;2.20;;;14.30;99.90;;;;;;5057286;28;20216;-72
2022/09/16 12:23:41;;;;;;;2.35;2.17;;;14.10;99.90;;;;;;5058325;28;20174;-72
2022/09/16 12:26:30;;;;;;;3.20;2.17;;;13.80;99.90;;;;;;5056618;28;20173;-72
2022/09/16 12:29:35;;;;;;;5.75;2.75;;;13.40;99.90;;;;;;5057308;28;20555;-72
2022/09/16 12:32:05;;;;;;;5.60;2.50;;;13.00;99.90;;;;;;5045469;28;20690;-72
2022/09/16 12:35:09;;;;;;;9.02;3.42;;;12.60;99.90;;;;;;5057217;28;20178;-72
2022/09/16 12:37:47;;;;;;;6.32;2.90;;;12.00;99.90;;;;;;5086309;28;20280;-73
2022/09/16 12:40:37;;;;;;;4.55;3.00;;;11.60;99.90;;;;;;5076254;28;20280;-73
2022/09/16 12:43:18;;;;;;;3.20;2.90;;;11.30;99.90;;;;;;5056149;28;20182;-73
2022/09/16 12:45:56;;;;;;;8.27;2.73;;;11.20;99.90;;;;;;5057239;28;20167;-72
2022/09/16 12:48:37;;;;;;;2.70;2.50;;;11.30;99.90;;;;;;5055810;28;20202;-72
2022/09/16 12:51:24;;;;;;;5.90;2.80;;;11.40;99.90;;;;;;5057148;28;20158;-72
2022/09/16 12:53:54;;;;;;;4.20;3.13;;;11.40;99.90;;;;;;5055844;28;20520;-72
2022/09/16 12:56:37;;;;;;;2.97;2.75;;;11.30;99.90;;;;;;5056929;28;20650;-72
2022/09/16 12:59:41;;;;;;;3.77;2.90;;;11.20;99.90;;;;;;5055454;28;20720;-72
2022/09/16 13:02:19;;;;;;;4.37;2.53;;;11.10;99.90;;;;;;5057508;28;20173;-72
2022/09/16 13:04:50;;;;;;;7.10;3.23;;;11.00;99.90;;;;;;5055286;28;20189;-72
2022/09/16 13:07:28;;;;;;;8.70;3.40;;;11.00;99.90;;;;;;5084957;28;20183;-72
2022/09/16 13:10:16;;;;;;;8.07;3.23;;;11.00;99.90;;;;;;5081258;28;20251;-72
2022/09/16 13:12:48;;;;;;;8.43;4.47;;;11.00;99.90;;;;;;5055923;28;20587;-71
2022/09/16 13:15:40;;;;;;;6.27;2.90;;;11.00;99.90;;;;;;5056188;28;20620;-71
2022/09/16 13:18:41;;;;;;;6.43;3.07;;;10.90;99.90;;;;;;5053963;28;20206;-71
2022/09/16 13:21:22;;;;;;;6.23;3.50;;;10.90;99.90;;;;;;5055158;28;20662;-71